This is the latest recevied weather packets stored in our database for station/object KA3ZXO. If no packets are shown the sender has not sent any weather packets the latest 10 day(s).
| Time | Temp. | Humidity | Pressure | Rain* | Wind** | Luminosity | Snow |
|---|---|---|---|---|---|---|---|
| 1777418375 | 15.56° C | 67% | 1017.6 hPa | 0 mm | - | 12 W/m² | - |
| 1777417773 | 15.56° C | 66% | 1017.5 hPa | 0 mm | - | 15 W/m² | - |
| 1777417171 | 16.11° C | 66% | 1017.4 hPa | 0 mm | - | 23 W/m² | - |
| 1777416568 | 16.11° C | 66% | 1017.3 hPa | 0 mm | - | 23 W/m² | - |
| 1777415964 | 16.11° C | 65% | 1017.3 hPa | 0 mm | - | 41 W/m² | - |
| 1777415361 | 16.11° C | 64% | 1017.2 hPa | 0 mm | - | 33 W/m² | - |
| 1777414761 | 16.67° C | 62% | 1017.2 hPa | 0 mm | - | 45 W/m² | - |
| 1777414156 | 17.22° C | 59% | 1017.3 hPa | 0 mm | - | 45 W/m² | - |
| 1777413554 | 17.22° C | 52% | 1017.1 hPa | 0 mm | - | 32 W/m² | - |
| 1777412951 | 17.22° C | 51% | 1017.2 hPa | 0 mm | - | 81 W/m² | - |
| 1777412348 | 17.78° C | 53% | 1017.2 hPa | 0 mm | - | 56 W/m² | - |
| 1777411743 | 18.33° C | 52% | 1017.2 hPa | 0 mm | - | 99 W/m² | - |
| 1777411138 | 18.33° C | 52% | 1017.4 hPa | 0 mm | - | 107 W/m² | - |
| 1777410537 | 18.89° C | 51% | 1017.3 hPa | 0 mm | - | 115 W/m² | - |
| 1777409938 | 18.33° C | 52% | 1017.5 hPa | 0 mm | - | 213 W/m² | - |
| 1777409335 | 18.33° C | 52% | 1017.7 hPa | 0 mm | - | 116 W/m² | - |
| 1777408734 | 18.89° C | 49% | 1017.7 hPa | 0 mm | - | 73 W/m² | - |
| 1777408130 | 18.89° C | 48% | 1017.6 hPa | 0 mm | - | 469 W/m² | - |
| 1777407529 | 19.44° C | 50% | 1018 hPa | 0 mm | - | 98 W/m² | - |
| 1777406923 | 18.33° C | 51% | 1017.8 hPa | 0 mm | - | 342 W/m² | - |
| 1777406321 | 17.78° C | 52% | 1018.1 hPa | 0 mm | - | 181 W/m² | - |
| 1777405717 | 17.78° C | 52% | 1018 hPa | 0 mm | - | 95 W/m² | - |
| 1777405116 | 17.78° C | 53% | 1018.1 hPa | 0 mm | - | 84 W/m² | - |
| 1777404511 | 17.78° C | 52% | 1018.3 hPa | 0 mm | - | 82 W/m² | - |
| 1777403909 | 18.33° C | 52% | 1018.4 hPa | 0 mm | - | 180 W/m² | - |
* Rain latest hour (hover to see other rain measurements)
** Current wind speed in m/s (hover to see current wind gust speed)